Greta — WDF3298 — position and weather

sailwx.info

Track history (hours):
 
Tides and Currents Weather Stations Pressure Air Temp Water Temp Dewpoint Dewpoint Depression Visibility Wind Speed Wind Dir Waves Ship Positions

Greta

Owner: General Electric Credit Corporation Of Tennessee, Seattle, WA. More information available from US FCC via Universal Licensing System and Coast Guard Vessel Documentation Center.

Last reported at 2015-Jan-12 23:25 UTC. Time now 2015-Jan-27 12:31 UTC.
Position N 47°32' W 122°20'.
Warning: this ship's position is 14 days out of date.

Length 45 m; draft 2 m.

Type: Ship. MMSI: 367438220.

Date/timePositionNaut miles runAvg speedWind from/ knotsBaromVisibWave heightAir tempDewpointWater temp
2015-Jan-12 23:25N 47°32' W 122°20'0 0.0
2015-Jan-12 23:24N 47°32' W 122°20'1 1.0
2015-Jan-12 22:33N 47°33' W 122°20'0 5.1
2015-Jan-12 22:29N 47°33' W 122°20'4 4.7
2015-Jan-12 21:33N 47°33' W 122°27'1 8.1
2015-Jan-12 21:24N 47°32' W 122°28'8 9.5
2015-Jan-12 20:33N 47°24' W 122°32'9 8.6
2015-Jan-12 19:33N 47°17' W 122°27'1 1.1
2015-Jan-12 18:33N 47°16' W 122°26'0 0.0
2015-Jan-12 17:24N 47°16' W 122°26'0 0.0
2015-Jan-12 16:33N 47°16' W 122°26'0 0.0
2015-Jan-12 15:33N 47°16' W 122°26'0 0.0
2015-Jan-12 14:33N 47°16' W 122°26'0 0.0
2015-Jan-12 13:33N 47°16' W 122°26'0 0.0
2015-Jan-12 12:33N 47°16' W 122°26'0 0.0
2015-Jan-12 11:33N 47°16' W 122°26'0 0.0
2015-Jan-12 10:33N 47°16' W 122°26'0 0.0
2015-Jan-12 09:33N 47°16' W 122°26'0 0.0
2015-Jan-12 08:33N 47°16' W 122°26'0 0.0
2015-Jan-12 07:33N 47°16' W 122°26'0 0.0
2015-Jan-12 06:33N 47°16' W 122°26'0 0.0
2015-Jan-12 05:33N 47°16' W 122°26'0 0.0
2015-Jan-12 04:33N 47°16' W 122°26'0 0.0
2015-Jan-12 03:33N 47°16' W 122°26'0 0.0
2015-Jan-12 02:33N 47°16' W 122°26'0 0.0
2015-Jan-12 01:33N 47°16' W 122°26'0 0.0
2015-Jan-12 00:33N 47°16' W 122°26'0 0.0
2015-Jan-11 23:33N 47°16' W 122°26'0 0.0
2015-Jan-11 22:33N 47°16' W 122°26'0 0.0
2015-Jan-11 21:33N 47°16' W 122°26'0 0.0
2015-Jan-11 20:33N 47°16' W 122°26'0 0.0
2015-Jan-11 19:33N 47°16' W 122°26'0 0.0
2015-Jan-11 17:25N 47°16' W 122°26'0 0.0
2015-Jan-11 16:31N 47°16' W 122°26'0 0.0
2015-Jan-11 15:30N 47°16' W 122°26'0 0.0
2015-Jan-11 14:33N 47°16' W 122°26'0 0.0
2015-Jan-11 13:33N 47°16' W 122°26'0 0.0
2015-Jan-11 12:33N 47°16' W 122°26'0 0.0
2015-Jan-11 11:33N 47°16' W 122°26'0 0.0
2015-Jan-11 10:33N 47°16' W 122°26'0 0.0
2015-Jan-11 09:33N 47°16' W 122°26'0 0.0
2015-Jan-11 08:33N 47°16' W 122°26'0 0.0
2015-Jan-11 07:33N 47°16' W 122°26'0 0.0
2015-Jan-11 06:33N 47°16' W 122°26'0 0.0
2015-Jan-11 05:33N 47°16' W 122°26'0 0.0
2015-Jan-11 04:33N 47°16' W 122°26'0 0.0
2015-Jan-11 03:32N 47°16' W 122°26'0 0.0
2015-Jan-11 02:33N 47°16' W 122°26'0 0.0
2015-Jan-11 01:33N 47°16' W 122°26'0 0.0
2015-Jan-11 00:33N 47°16' W 122°26'0 0.0
2015-Jan-10 23:33N 47°16' W 122°26'0 0.0
2015-Jan-10 22:33N 47°16' W 122°26'0 0.0
2015-Jan-10 21:33N 47°16' W 122°26'0 0.0
2015-Jan-10 20:32N 47°16' W 122°26'0 0.0
2015-Jan-10 19:31N 47°16' W 122°26'0 0.0
2015-Jan-10 18:32N 47°16' W 122°26'0 0.0
2015-Jan-10 17:33N 47°16' W 122°26'0 0.0
2015-Jan-10 15:23N 47°16' W 122°26'0 0.0
2015-Jan-10 14:32N 47°16' W 122°26'0 0.0
2015-Jan-10 13:33N 47°16' W 122°26'0 0.0
2015-Jan-10 12:33N 47°16' W 122°26'0 0.0
2015-Jan-10 11:33N 47°16' W 122°26'0 0.0
2015-Jan-10 10:33N 47°16' W 122°26'0 0.0
2015-Jan-10 09:33N 47°16' W 122°26'0 0.0
2015-Jan-10 08:33N 47°16' W 122°26'0 0.0
2015-Jan-10 07:33N 47°16' W 122°26'0 0.0
2015-Jan-10 06:33N 47°16' W 122°26'0 0.0
2015-Jan-10 05:33N 47°16' W 122°26'0 0.0
2015-Jan-10 04:33N 47°16' W 122°26'0 0.0
2015-Jan-10 03:33N 47°16' W 122°26'0 0.0
2015-Jan-10 02:33N 47°16' W 122°26'0 0.0
2015-Jan-10 01:33N 47°16' W 122°26'0 0.0
2015-Jan-10 00:33N 47°16' W 122°26'0 0.0
2015-Jan-09 23:33N 47°16' W 122°26'0 0.0
2015-Jan-09 22:33N 47°16' W 122°26'0 0.0
2015-Jan-09 21:33N 47°16' W 122°26'0 0.0
2015-Jan-09 20:33N 47°16' W 122°26'0 0.0
2015-Jan-09 19:32N 47°16' W 122°26'0 0.0
2015-Jan-09 18:33N 47°16' W 122°26'0 0.0
2015-Jan-09 17:33N 47°16' W 122°26'0 0.0
2015-Jan-09 16:33N 47°16' W 122°26'0 0.0
2015-Jan-09 15:33N 47°16' W 122°26'0 0.0
2015-Jan-09 14:33N 47°16' W 122°26'0 0.0
2015-Jan-09 13:34N 47°16' W 122°26'0 0.0
2015-Jan-09 12:33N 47°16' W 122°26'0 0.0
2015-Jan-09 11:33N 47°16' W 122°26'0 0.0
2015-Jan-09 10:33N 47°16' W 122°26'0 0.0
2015-Jan-09 09:33N 47°16' W 122°26'0 0.0
2015-Jan-09 08:33N 47°16' W 122°26'0 0.0
2015-Jan-09 07:33N 47°16' W 122°26'0 0.0
2015-Jan-09 06:17N 47°16' W 122°26'0 0.0
2015-Jan-09 05:33N 47°16' W 122°26'0 0.0
2015-Jan-09 04:33N 47°16' W 122°26'0 0.0
2015-Jan-09 03:26N 47°16' W 122°26'0 0.0
2015-Jan-09 02:12N 47°16' W 122°26'0 0.0
2015-Jan-09 01:32N 47°16' W 122°26'0 0.0
2015-Jan-09 00:33N 47°16' W 122°26'0 0.0
2015-Jan-08 22:33N 47°16' W 122°26'0 0.0
2015-Jan-08 21:33N 47°16' W 122°26'0 0.0
2015-Jan-08 20:33N 47°16' W 122°26'0 0.0
2015-Jan-08 19:33N 47°16' W 122°26'0 0.0
2015-Jan-08 18:33N 47°16' W 122°26'0 0.0
2015-Jan-08 17:33N 47°16' W 122°26'0 0.0
2015-Jan-08 16:33N 47°16' W 122°26'0 0.0
2015-Jan-08 15:33N 47°16' W 122°26'0 0.0
2015-Jan-08 14:33N 47°16' W 122°26'0 0.0
2015-Jan-08 13:33N 47°16' W 122°26'0 0.0
2015-Jan-08 12:33N 47°16' W 122°26'0 0.0
2015-Jan-08 11:33N 47°16' W 122°26'0 0.0
2015-Jan-08 10:33N 47°16' W 122°26'0 0.0
2015-Jan-08 09:33N 47°16' W 122°26'0 0.0
2015-Jan-08 08:33N 47°16' W 122°26'0 0.0
2015-Jan-08 07:33N 47°16' W 122°26'0 0.0
2015-Jan-08 06:33N 47°16' W 122°26'0 0.0
2015-Jan-08 05:33N 47°16' W 122°26'0 0.0
2015-Jan-08 04:33N 47°16' W 122°26'0 0.0
2015-Jan-08 03:51N 47°16' W 122°26'0 0.0
2015-Jan-07 14:32N 47°16' W 122°26'0 0.0
2015-Jan-07 13:29N 47°16' W 122°26'0 0.0
2015-Jan-07 07:33N 47°16' W 122°26'0 0.0
2015-Jan-07 06:34N 47°16' W 122°26'0 0.0
2015-Jan-07 05:33N 47°16' W 122°26'0 0.0
2015-Jan-07 04:33N 47°16' W 122°26'0 0.0
2015-Jan-07 03:33N 47°16' W 122°26'0 0.0
2015-Jan-07 02:33N 47°16' W 122°26'0 0.0
2015-Jan-07 01:33N 47°16' W 122°26'0 0.0
2015-Jan-07 00:33N 47°16' W 122°26'0 0.0
2015-Jan-06 23:33N 47°16' W 122°26'0 0.0
2015-Jan-06 22:33N 47°16' W 122°26'0 0.0
2015-Jan-06 21:33N 47°16' W 122°26'0 0.0
2015-Jan-06 20:33N 47°16' W 122°26'0 0.0
2015-Jan-06 19:33N 47°16' W 122°26'0 0.0
2015-Jan-06 18:33N 47°16' W 122°26'0 0.0
2015-Jan-06 17:33N 47°16' W 122°26'0 0.0
2015-Jan-06 16:33N 47°16' W 122°26'0 0.0
2015-Jan-06 15:33N 47°16' W 122°26'0 0.0
2015-Jan-06 14:33N 47°16' W 122°26'0 0.0
2015-Jan-06 13:33N 47°16' W 122°26'0 0.0
2015-Jan-06 12:33N 47°16' W 122°26'0 0.0
2015-Jan-06 11:33N 47°16' W 122°26'0 0.0
2015-Jan-06 10:34N 47°16' W 122°26'0 0.0
2015-Jan-06 09:33N 47°16' W 122°26'0 0.0
2015-Jan-06 08:33N 47°16' W 122°26'0 0.0
2015-Jan-06 07:33N 47°16' W 122°26'0 0.0
2015-Jan-06 06:33N 47°16' W 122°26'0 0.0
2015-Jan-06 05:33N 47°16' W 122°26'0 0.0
2015-Jan-06 04:33N 47°16' W 122°26'0 0.0
2015-Jan-06 03:33N 47°16' W 122°26'0 0.0
2015-Jan-06 02:33N 47°16' W 122°26'0 0.0
2015-Jan-06 01:33N 47°16' W 122°26'0 0.0
2015-Jan-06 00:33N 47°16' W 122°26'0 0.0
2015-Jan-05 23:33N 47°16' W 122°26'0 0.0
2015-Jan-05 22:34N 47°16' W 122°26'0 0.0
2015-Jan-05 21:32N 47°16' W 122°26'0 0.0
2015-Jan-05 20:33N 47°16' W 122°26'0 0.0
2015-Jan-05 19:33N 47°16' W 122°26'0 0.0
2015-Jan-05 18:33N 47°16' W 122°26'0 0.0
2015-Jan-05 17:33N 47°16' W 122°26'0 0.0
2015-Jan-05 16:33N 47°16' W 122°26'0 0.0
2015-Jan-05 15:33N 47°16' W 122°26'0 0.0
2015-Jan-05 14:33N 47°16' W 122°26'0 0.0
2015-Jan-05 13:33N 47°16' W 122°26'0 0.0
2015-Jan-05 12:33N 47°16' W 122°26'0 0.0
2015-Jan-05 11:33N 47°16' W 122°26'0 0.0
2015-Jan-05 10:33N 47°16' W 122°26'0 0.0
2015-Jan-05 09:33N 47°16' W 122°26'0 0.0
2015-Jan-05 08:33N 47°16' W 122°26'0 0.0
2015-Jan-05 07:33N 47°16' W 122°26'0 0.0
2015-Jan-05 06:33N 47°16' W 122°26'0 0.0
2015-Jan-05 05:34N 47°16' W 122°26'0 0.0
2015-Jan-05 04:33N 47°16' W 122°26'0 0.0
2015-Jan-05 03:33N 47°16' W 122°26'0 0.0
2015-Jan-05 02:33N 47°16' W 122°26'0 0.0
2015-Jan-05 01:30N 47°16' W 122°26'0 0.0
2015-Jan-05 00:28N 47°16' W 122°26'0 0.0
2015-Jan-04 23:33N 47°16' W 122°26'0 0.0
2015-Jan-04 22:33N 47°16' W 122°26'0 0.0
2015-Jan-04 21:33N 47°16' W 122°26'0 0.0
2015-Jan-04 20:33N 47°16' W 122°26'0 0.0
2015-Jan-04 19:33N 47°16' W 122°26'0 0.0
2015-Jan-04 18:33N 47°16' W 122°26'0 0.0
2015-Jan-04 17:33N 47°16' W 122°26'0 0.0
2015-Jan-04 16:33N 47°16' W 122°26'0 0.0
2015-Jan-04 15:33N 47°16' W 122°26'0 0.0
2015-Jan-04 14:33N 47°16' W 122°26'0 0.0
2015-Jan-04 13:33N 47°16' W 122°26'0 0.0
2015-Jan-04 12:33N 47°16' W 122°26'0 0.0
2015-Jan-04 11:33N 47°16' W 122°26'0 0.0
2015-Jan-04 10:33N 47°16' W 122°26'0 0.0
2015-Jan-04 09:33N 47°16' W 122°26'0 0.0
2015-Jan-04 08:33N 47°16' W 122°26'0 0.0
2015-Jan-04 07:33N 47°16' W 122°26'0 0.0
2015-Jan-04 06:33N 47°16' W 122°26'0 0.0
2015-Jan-04 05:32N 47°16' W 122°26'0 0.0
2015-Jan-04 04:33N 47°16' W 122°26'0 0.0
2015-Jan-04 03:33N 47°16' W 122°26'0 0.0
2015-Jan-04 02:31N 47°16' W 122°26'0 0.0
2015-Jan-04 01:33N 47°16' W 122°26'0 0.0
2015-Jan-04 00:30N 47°16' W 122°26'0 0.0
2015-Jan-03 23:33N 47°16' W 122°26'0 0.0
2015-Jan-03 22:33N 47°16' W 122°26'0 0.0
2015-Jan-03 21:33N 47°16' W 122°26'0 0.0
2015-Jan-03 20:33N 47°16' W 122°26'0 0.0
2015-Jan-03 19:32N 47°16' W 122°26'0 0.0
2015-Jan-03 18:32N 47°16' W 122°26'0 0.0
2015-Jan-03 17:33N 47°16' W 122°26'0 0.0
2015-Jan-03 16:33N 47°16' W 122°26'0 0.0
2015-Jan-03 15:33N 47°16' W 122°26'0 0.0
2015-Jan-03 14:33N 47°16' W 122°26'0 0.0
2015-Jan-03 13:34N 47°16' W 122°26'0 0.0
2015-Jan-03 12:33N 47°16' W 122°26'0 0.0
2015-Jan-03 11:33N 47°16' W 122°26'0 0.0
2015-Jan-03 10:30N 47°16' W 122°26'0 0.0
2015-Jan-03 09:17N 47°16' W 122°26'0 0.1
2015-Jan-03 08:33N 47°16' W 122°26'0 0.0
2015-Jan-03 07:33N 47°16' W 122°26'0 0.0
2015-Jan-03 06:33N 47°16' W 122°26'0 0.0
2015-Jan-03 05:31N 47°16' W 122°26'0 0.0
2015-Jan-03 04:33N 47°16' W 122°26'0 0.0
2015-Jan-03 03:31N 47°16' W 122°26'0 0.0
2015-Jan-03 02:33N 47°16' W 122°26'0 0.0
2015-Jan-03 01:33N 47°16' W 122°26'0 0.0
2015-Jan-03 00:33N 47°16' W 122°26'0 0.0
2015-Jan-02 23:33N 47°16' W 122°26'  
Track history (hours):
 
Tides and Currents Weather Stations Pressure Air Temp Water Temp Dewpoint Dewpoint Depression Visibility Wind Speed Wind Dir Waves Ship Positions

Greta

Owner: General Electric Credit Corporation Of Tennessee, Seattle, WA. More information available from US FCC via Universal Licensing System and Coast Guard Vessel Documentation Center.

Last reported at 2015-Jan-12 23:25 UTC. Time now 2015-Jan-27 12:31 UTC.
Position N 47°32' W 122°20'.
Warning: this ship's position is 14 days out of date.

Length 45 m; draft 2 m.

Type: Ship. MMSI: 367438220.

Date/timePositionNaut miles runAvg speedWind from/ knotsBaromVisibWave heightAir tempDewpointWater temp
2015-Jan-12 23:25N 47°32' W 122°20'0 0.0
2015-Jan-12 23:24N 47°32' W 122°20'1 1.0
2015-Jan-12 22:33N 47°33' W 122°20'0 5.1
2015-Jan-12 22:29N 47°33' W 122°20'4 4.7
2015-Jan-12 21:33N 47°33' W 122°27'1 8.1
2015-Jan-12 21:24N 47°32' W 122°28'8 9.5
2015-Jan-12 20:33N 47°24' W 122°32'9 8.6
2015-Jan-12 19:33N 47°17' W 122°27'1 1.1
2015-Jan-12 18:33N 47°16' W 122°26'0 0.0
2015-Jan-12 17:24N 47°16' W 122°26'0 0.0
2015-Jan-12 16:33N 47°16' W 122°26'0 0.0
2015-Jan-12 15:33N 47°16' W 122°26'0 0.0
2015-Jan-12 14:33N 47°16' W 122°26'0 0.0
2015-Jan-12 13:33N 47°16' W 122°26'0 0.0
2015-Jan-12 12:33N 47°16' W 122°26'0 0.0
2015-Jan-12 11:33N 47°16' W 122°26'0 0.0
2015-Jan-12 10:33N 47°16' W 122°26'0 0.0
2015-Jan-12 09:33N 47°16' W 122°26'0 0.0
2015-Jan-12 08:33N 47°16' W 122°26'0 0.0
2015-Jan-12 07:33N 47°16' W 122°26'0 0.0
2015-Jan-12 06:33N 47°16' W 122°26'0 0.0
2015-Jan-12 05:33N 47°16' W 122°26'0 0.0
2015-Jan-12 04:33N 47°16' W 122°26'0 0.0
2015-Jan-12 03:33N 47°16' W 122°26'0 0.0
2015-Jan-12 02:33N 47°16' W 122°26'0 0.0
2015-Jan-12 01:33N 47°16' W 122°26'0 0.0
2015-Jan-12 00:33N 47°16' W 122°26'0 0.0
2015-Jan-11 23:33N 47°16' W 122°26'0 0.0
2015-Jan-11 22:33N 47°16' W 122°26'0 0.0
2015-Jan-11 21:33N 47°16' W 122°26'0 0.0
2015-Jan-11 20:33N 47°16' W 122°26'0 0.0
2015-Jan-11 19:33N 47°16' W 122°26'0 0.0
2015-Jan-11 17:25N 47°16' W 122°26'0 0.0
2015-Jan-11 16:31N 47°16' W 122°26'0 0.0
2015-Jan-11 15:30N 47°16' W 122°26'0 0.0
2015-Jan-11 14:33N 47°16' W 122°26'0 0.0
2015-Jan-11 13:33N 47°16' W 122°26'0 0.0
2015-Jan-11 12:33N 47°16' W 122°26'0 0.0
2015-Jan-11 11:33N 47°16' W 122°26'0 0.0
2015-Jan-11 10:33N 47°16' W 122°26'0 0.0
2015-Jan-11 09:33N 47°16' W 122°26'0 0.0
2015-Jan-11 08:33N 47°16' W 122°26'0 0.0
2015-Jan-11 07:33N 47°16' W 122°26'0 0.0
2015-Jan-11 06:33N 47°16' W 122°26'0 0.0
2015-Jan-11 05:33N 47°16' W 122°26'0 0.0
2015-Jan-11 04:33N 47°16' W 122°26'0 0.0
2015-Jan-11 03:32N 47°16' W 122°26'0 0.0
2015-Jan-11 02:33N 47°16' W 122°26'0 0.0
2015-Jan-11 01:33N 47°16' W 122°26'0 0.0
2015-Jan-11 00:33N 47°16' W 122°26'0 0.0
2015-Jan-10 23:33N 47°16' W 122°26'0 0.0
2015-Jan-10 22:33N 47°16' W 122°26'0 0.0
2015-Jan-10 21:33N 47°16' W 122°26'0 0.0
2015-Jan-10 20:32N 47°16' W 122°26'0 0.0
2015-Jan-10 19:31N 47°16' W 122°26'0 0.0
2015-Jan-10 18:32N 47°16' W 122°26'0 0.0
2015-Jan-10 17:33N 47°16' W 122°26'0 0.0
2015-Jan-10 15:23N 47°16' W 122°26'0 0.0
2015-Jan-10 14:32N 47°16' W 122°26'0 0.0
2015-Jan-10 13:33N 47°16' W 122°26'0 0.0
2015-Jan-10 12:33N 47°16' W 122°26'0 0.0
2015-Jan-10 11:33N 47°16' W 122°26'0 0.0
2015-Jan-10 10:33N 47°16' W 122°26'0 0.0
2015-Jan-10 09:33N 47°16' W 122°26'0 0.0
2015-Jan-10 08:33N 47°16' W 122°26'0 0.0
2015-Jan-10 07:33N 47°16' W 122°26'0 0.0
2015-Jan-10 06:33N 47°16' W 122°26'0 0.0
2015-Jan-10 05:33N 47°16' W 122°26'0 0.0
2015-Jan-10 04:33N 47°16' W 122°26'0 0.0
2015-Jan-10 03:33N 47°16' W 122°26'0 0.0
2015-Jan-10 02:33N 47°16' W 122°26'0 0.0
2015-Jan-10 01:33N 47°16' W 122°26'0 0.0
2015-Jan-10 00:33N 47°16' W 122°26'0 0.0
2015-Jan-09 23:33N 47°16' W 122°26'0 0.0
2015-Jan-09 22:33N 47°16' W 122°26'0 0.0
2015-Jan-09 21:33N 47°16' W 122°26'0 0.0
2015-Jan-09 20:33N 47°16' W 122°26'0 0.0
2015-Jan-09 19:32N 47°16' W 122°26'0 0.0
2015-Jan-09 18:33N 47°16' W 122°26'0 0.0
2015-Jan-09 17:33N 47°16' W 122°26'0 0.0
2015-Jan-09 16:33N 47°16' W 122°26'0 0.0
2015-Jan-09 15:33N 47°16' W 122°26'0 0.0
2015-Jan-09 14:33N 47°16' W 122°26'0 0.0
2015-Jan-09 13:34N 47°16' W 122°26'0 0.0
2015-Jan-09 12:33N 47°16' W 122°26'0 0.0
2015-Jan-09 11:33N 47°16' W 122°26'0 0.0
2015-Jan-09 10:33N 47°16' W 122°26'0 0.0
2015-Jan-09 09:33N 47°16' W 122°26'0 0.0
2015-Jan-09 08:33N 47°16' W 122°26'0 0.0
2015-Jan-09 07:33N 47°16' W 122°26'0 0.0
2015-Jan-09 06:17N 47°16' W 122°26'0 0.0
2015-Jan-09 05:33N 47°16' W 122°26'0 0.0
2015-Jan-09 04:33N 47°16' W 122°26'0 0.0
2015-Jan-09 03:26N 47°16' W 122°26'0 0.0
2015-Jan-09 02:12N 47°16' W 122°26'0 0.0
2015-Jan-09 01:32N 47°16' W 122°26'0 0.0
2015-Jan-09 00:33N 47°16' W 122°26'0 0.0
2015-Jan-08 22:33N 47°16' W 122°26'0 0.0
2015-Jan-08 21:33N 47°16' W 122°26'0 0.0
2015-Jan-08 20:33N 47°16' W 122°26'0 0.0
2015-Jan-08 19:33N 47°16' W 122°26'0 0.0
2015-Jan-08 18:33N 47°16' W 122°26'0 0.0
2015-Jan-08 17:33N 47°16' W 122°26'0 0.0
2015-Jan-08 16:33N 47°16' W 122°26'0 0.0
2015-Jan-08 15:33N 47°16' W 122°26'0 0.0
2015-Jan-08 14:33N 47°16' W 122°26'0 0.0
2015-Jan-08 13:33N 47°16' W 122°26'0 0.0
2015-Jan-08 12:33N 47°16' W 122°26'0 0.0
2015-Jan-08 11:33N 47°16' W 122°26'0 0.0
2015-Jan-08 10:33N 47°16' W 122°26'0 0.0
2015-Jan-08 09:33N 47°16' W 122°26'0 0.0
2015-Jan-08 08:33N 47°16' W 122°26'0 0.0
2015-Jan-08 07:33N 47°16' W 122°26'0 0.0
2015-Jan-08 06:33N 47°16' W 122°26'0 0.0
2015-Jan-08 05:33N 47°16' W 122°26'0 0.0
2015-Jan-08 04:33N 47°16' W 122°26'0 0.0
2015-Jan-08 03:51N 47°16' W 122°26'0 0.0
2015-Jan-07 14:32N 47°16' W 122°26'0 0.0
2015-Jan-07 13:29N 47°16' W 122°26'0 0.0
2015-Jan-07 07:33N 47°16' W 122°26'0 0.0
2015-Jan-07 06:34N 47°16' W 122°26'0 0.0
2015-Jan-07 05:33N 47°16' W 122°26'0 0.0
2015-Jan-07 04:33N 47°16' W 122°26'0 0.0
2015-Jan-07 03:33N 47°16' W 122°26'0 0.0
2015-Jan-07 02:33N 47°16' W 122°26'0 0.0
2015-Jan-07 01:33N 47°16' W 122°26'0 0.0
2015-Jan-07 00:33N 47°16' W 122°26'0 0.0
2015-Jan-06 23:33N 47°16' W 122°26'0 0.0
2015-Jan-06 22:33N 47°16' W 122°26'0 0.0
2015-Jan-06 21:33N 47°16' W 122°26'0 0.0
2015-Jan-06 20:33N 47°16' W 122°26'0 0.0
2015-Jan-06 19:33N 47°16' W 122°26'0 0.0
2015-Jan-06 18:33N 47°16' W 122°26'0 0.0
2015-Jan-06 17:33N 47°16' W 122°26'0 0.0
2015-Jan-06 16:33N 47°16' W 122°26'0 0.0
2015-Jan-06 15:33N 47°16' W 122°26'0 0.0
2015-Jan-06 14:33N 47°16' W 122°26'0 0.0
2015-Jan-06 13:33N 47°16' W 122°26'0 0.0
2015-Jan-06 12:33N 47°16' W 122°26'0 0.0
2015-Jan-06 11:33N 47°16' W 122°26'0 0.0
2015-Jan-06 10:34N 47°16' W 122°26'0 0.0
2015-Jan-06 09:33N 47°16' W 122°26'0 0.0
2015-Jan-06 08:33N 47°16' W 122°26'0 0.0
2015-Jan-06 07:33N 47°16' W 122°26'0 0.0
2015-Jan-06 06:33N 47°16' W 122°26'0 0.0
2015-Jan-06 05:33N 47°16' W 122°26'0 0.0
2015-Jan-06 04:33N 47°16' W 122°26'0 0.0
2015-Jan-06 03:33N 47°16' W 122°26'0 0.0
2015-Jan-06 02:33N 47°16' W 122°26'0 0.0
2015-Jan-06 01:33N 47°16' W 122°26'0 0.0
2015-Jan-06 00:33N 47°16' W 122°26'0 0.0
2015-Jan-05 23:33N 47°16' W 122°26'0 0.0
2015-Jan-05 22:34N 47°16' W 122°26'0 0.0
2015-Jan-05 21:32N 47°16' W 122°26'0 0.0
2015-Jan-05 20:33N 47°16' W 122°26'0 0.0
2015-Jan-05 19:33N 47°16' W 122°26'0 0.0
2015-Jan-05 18:33N 47°16' W 122°26'0 0.0
2015-Jan-05 17:33N 47°16' W 122°26'0 0.0
2015-Jan-05 16:33N 47°16' W 122°26'0 0.0
2015-Jan-05 15:33N 47°16' W 122°26'0 0.0
2015-Jan-05 14:33N 47°16' W 122°26'0 0.0
2015-Jan-05 13:33N 47°16' W 122°26'0 0.0
2015-Jan-05 12:33N 47°16' W 122°26'0 0.0
2015-Jan-05 11:33N 47°16' W 122°26'0 0.0
2015-Jan-05 10:33N 47°16' W 122°26'0 0.0
2015-Jan-05 09:33N 47°16' W 122°26'0 0.0
2015-Jan-05 08:33N 47°16' W 122°26'0 0.0
2015-Jan-05 07:33N 47°16' W 122°26'0 0.0
2015-Jan-05 06:33N 47°16' W 122°26'0 0.0
2015-Jan-05 05:34N 47°16' W 122°26'0 0.0
2015-Jan-05 04:33N 47°16' W 122°26'0 0.0
2015-Jan-05 03:33N 47°16' W 122°26'0 0.0
2015-Jan-05 02:33N 47°16' W 122°26'0 0.0
2015-Jan-05 01:30N 47°16' W 122°26'0 0.0
2015-Jan-05 00:28N 47°16' W 122°26'0 0.0
2015-Jan-04 23:33N 47°16' W 122°26'0 0.0
2015-Jan-04 22:33N 47°16' W 122°26'0 0.0
2015-Jan-04 21:33N 47°16' W 122°26'0 0.0
2015-Jan-04 20:33N 47°16' W 122°26'0 0.0
2015-Jan-04 19:33N 47°16' W 122°26'0 0.0
2015-Jan-04 18:33N 47°16' W 122°26'0 0.0
2015-Jan-04 17:33N 47°16' W 122°26'0 0.0
2015-Jan-04 16:33N 47°16' W 122°26'0 0.0
2015-Jan-04 15:33N 47°16' W 122°26'0 0.0
2015-Jan-04 14:33N 47°16' W 122°26'0 0.0
2015-Jan-04 13:33N 47°16' W 122°26'0 0.0
2015-Jan-04 12:33N 47°16' W 122°26'0 0.0
2015-Jan-04 11:33N 47°16' W 122°26'0 0.0
2015-Jan-04 10:33N 47°16' W 122°26'0 0.0
2015-Jan-04 09:33N 47°16' W 122°26'0 0.0
2015-Jan-04 08:33N 47°16' W 122°26'0 0.0
2015-Jan-04 07:33N 47°16' W 122°26'0 0.0
2015-Jan-04 06:33N 47°16' W 122°26'0 0.0
2015-Jan-04 05:32N 47°16' W 122°26'0 0.0
2015-Jan-04 04:33N 47°16' W 122°26'0 0.0
2015-Jan-04 03:33N 47°16' W 122°26'0 0.0
2015-Jan-04 02:31N 47°16' W 122°26'0 0.0
2015-Jan-04 01:33N 47°16' W 122°26'0 0.0
2015-Jan-04 00:30N 47°16' W 122°26'0 0.0
2015-Jan-03 23:33N 47°16' W 122°26'0 0.0
2015-Jan-03 22:33N 47°16' W 122°26'0 0.0
2015-Jan-03 21:33N 47°16' W 122°26'0 0.0
2015-Jan-03 20:33N 47°16' W 122°26'0 0.0
2015-Jan-03 19:32N 47°16' W 122°26'0 0.0
2015-Jan-03 18:32N 47°16' W 122°26'0 0.0
2015-Jan-03 17:33N 47°16' W 122°26'0 0.0
2015-Jan-03 16:33N 47°16' W 122°26'0 0.0
2015-Jan-03 15:33N 47°16' W 122°26'0 0.0
2015-Jan-03 14:33N 47°16' W 122°26'0 0.0
2015-Jan-03 13:34N 47°16' W 122°26'0 0.0
2015-Jan-03 12:33N 47°16' W 122°26'0 0.0
2015-Jan-03 11:33N 47°16' W 122°26'0 0.0
2015-Jan-03 10:30N 47°16' W 122°26'0 0.0
2015-Jan-03 09:17N 47°16' W 122°26'0 0.1
2015-Jan-03 08:33N 47°16' W 122°26'0 0.0
2015-Jan-03 07:33N 47°16' W 122°26'0 0.0
2015-Jan-03 06:33N 47°16' W 122°26'0 0.0
2015-Jan-03 05:31N 47°16' W 122°26'0 0.0
2015-Jan-03 04:33N 47°16' W 122°26'0 0.0
2015-Jan-03 03:31N 47°16' W 122°26'0 0.0
2015-Jan-03 02:33N 47°16' W 122°26'0 0.0
2015-Jan-03 01:33N 47°16' W 122°26'0 0.0
2015-Jan-03 00:33N 47°16' W 122°26'0 0.0
2015-Jan-02 23:33N 47°16' W 122°26'  

Dump ship's entire track history